DAL180 RJTT-PHNL
Flight info
| Callsign | DAL180 |
|---|---|
| Flight time | N/A |
| Altitude | 35000 |
| Route | INUBO Y830 LAPIL OTR13 SEALS 35N150E 36N160E 35N170E 33N180E 29N170W DCT ECEDO DCT DANNO KLANI4 |
| Aircraft | B763/H-SDE3FGHIM3RWXY/LB1 |
Departure
| Time | 2026-05-06 11:06 |
|---|---|
| Airport | Tokyo Haneda International Airport (RJTT) |
Arrival
| Time | N/A |
|---|---|
| Airport | Daniel K. Inouye International Airport (PHNL) |
| Time | Latitude | Longitude | Altitude | Speed | Heading |
|---|---|---|---|---|---|
| 2026-05-06 10:18 | 35.54831 | 139.77087 | 31 ft | 0 kts | 330° |
| 2026-05-06 10:43 | 35.54824 | 139.77092 | 31 ft | 2 kts | 330° |
| 2026-05-06 10:44 | 35.54797 | 139.77112 | 31 ft | 2 kts | 330° |
| 2026-05-06 10:44 | 35.54784 | 139.77121 | 31 ft | 2 kts | 330° |
| 2026-05-06 10:44 | 35.54771 | 139.77127 | 31 ft | 2 kts | 358° |
| 2026-05-06 10:44 | 35.54756 | 139.77125 | 31 ft | 2 kts | 22° |
| 2026-05-06 10:45 | 35.54744 | 139.77116 | 31 ft | 2 kts | 47° |
| 2026-05-06 10:45 | 35.54738 | 139.77109 | 31 ft | 1 kts | 62° |
| 2026-05-06 10:45 | 35.54736 | 139.77103 | 31 ft | 0 kts | 60° |
| 2026-05-06 10:45 | 35.54736 | 139.77104 | 31 ft | 0 kts | 60° |
| 2026-05-06 10:48 | 35.54742 | 139.77116 | 31 ft | 2 kts | 60° |
| 2026-05-06 10:49 | 35.54754 | 139.77141 | 31 ft | 3 kts | 60° |
| 2026-05-06 10:49 | 35.54768 | 139.77171 | 31 ft | 4 kts | 60° |
| 2026-05-06 10:49 | 35.54783 | 139.77203 | 31 ft | 4 kts | 60° |
| 2026-05-06 10:49 | 35.54800 | 139.77240 | 31 ft | 5 kts | 60° |
| 2026-05-06 10:50 | 35.54818 | 139.77278 | 31 ft | 5 kts | 60° |
| 2026-05-06 10:50 | 35.54827 | 139.77318 | 31 ft | 4 kts | 90° |
| 2026-05-06 10:50 | 35.54819 | 139.77350 | 31 ft | 3 kts | 120° |
| 2026-05-06 10:50 | 35.54797 | 139.77376 | 31 ft | 6 kts | 144° |
| 2026-05-06 10:51 | 35.54742 | 139.77412 | 31 ft | 9 kts | 152° |
| 2026-05-06 10:51 | 35.54693 | 139.77455 | 31 ft | 7 kts | 123° |
| 2026-05-06 10:51 | 35.54690 | 139.77507 | 31 ft | 5 kts | 71° |
| 2026-05-06 10:51 | 35.54707 | 139.77547 | 31 ft | 5 kts | 62° |
| 2026-05-06 10:52 | 35.54726 | 139.77589 | 31 ft | 6 kts | 60° |
| 2026-05-06 10:52 | 35.54752 | 139.77644 | 31 ft | 8 kts | 60° |
| 2026-05-06 10:52 | 35.54785 | 139.77714 | 31 ft | 10 kts | 60° |
| 2026-05-06 10:52 | 35.54824 | 139.77797 | 31 ft | 10 kts | 59° |
| 2026-05-06 10:53 | 35.54860 | 139.77872 | 31 ft | 9 kts | 59° |
| 2026-05-06 10:53 | 35.54904 | 139.77919 | 31 ft | 7 kts | 12° |
| 2026-05-06 10:53 | 35.54949 | 139.77905 | 31 ft | 6 kts | 330° |
| 2026-05-06 10:53 | 35.54990 | 139.77875 | 31 ft | 8 kts | 329° |
| 2026-05-06 10:54 | 35.55048 | 139.77835 | 31 ft | 11 kts | 330° |
| 2026-05-06 10:54 | 35.55121 | 139.77783 | 31 ft | 12 kts | 330° |
| 2026-05-06 10:54 | 35.55193 | 139.77740 | 31 ft | 9 kts | 356° |
| 2026-05-06 10:54 | 35.55241 | 139.77776 | 31 ft | 8 kts | 41° |
| 2026-05-06 10:55 | 35.55292 | 139.77789 | 31 ft | 7 kts | 340° |
| 2026-05-06 10:55 | 35.55345 | 139.77751 | 31 ft | 9 kts | 329° |
| 2026-05-06 10:55 | 35.55411 | 139.77704 | 31 ft | 11 kts | 329° |
| 2026-05-06 10:55 | 35.55488 | 139.77649 | 31 ft | 13 kts | 329° |
| 2026-05-06 10:56 | 35.55572 | 139.77589 | 31 ft | 12 kts | 331° |
| 2026-05-06 10:56 | 35.55656 | 139.77531 | 31 ft | 14 kts | 330° |
| 2026-05-06 10:56 | 35.55742 | 139.77470 | 31 ft | 14 kts | 330° |
| 2026-05-06 10:56 | 35.55822 | 139.77416 | 31 ft | 11 kts | 332° |
| 2026-05-06 10:57 | 35.55887 | 139.77431 | 31 ft | 9 kts | 44° |
| 2026-05-06 10:57 | 35.55927 | 139.77507 | 31 ft | 11 kts | 61° |
| 2026-05-06 10:57 | 35.55968 | 139.77597 | 31 ft | 13 kts | 61° |
| 2026-05-06 10:57 | 35.56016 | 139.77702 | 31 ft | 15 kts | 59° |
| 2026-05-06 10:58 | 35.56070 | 139.77814 | 31 ft | 15 kts | 60° |
| 2026-05-06 10:58 | 35.56123 | 139.77925 | 31 ft | 15 kts | 60° |
| 2026-05-06 10:58 | 35.56174 | 139.78032 | 31 ft | 15 kts | 60° |
| 2026-05-06 10:58 | 35.56227 | 139.78143 | 31 ft | 14 kts | 60° |
| 2026-05-06 10:59 | 35.56280 | 139.78256 | 31 ft | 13 kts | 60° |
| 2026-05-06 10:59 | 35.56330 | 139.78361 | 31 ft | 15 kts | 60° |
| 2026-05-06 10:59 | 35.56384 | 139.78476 | 31 ft | 11 kts | 60° |
| 2026-05-06 10:59 | 35.56417 | 139.78546 | 31 ft | 8 kts | 59° |
| 2026-05-06 11:00 | 35.56434 | 139.78580 | 31 ft | 2 kts | 59° |
| 2026-05-06 11:00 | 35.56439 | 139.78590 | 31 ft | 1 kts | 59° |
| 2026-05-06 11:00 | 35.56448 | 139.78610 | 31 ft | 3 kts | 60° |
| 2026-05-06 11:00 | 35.56453 | 139.78619 | 31 ft | 0 kts | 60° |
| 2026-05-06 11:04 | 35.56455 | 139.78624 | 31 ft | 1 kts | 60° |
| 2026-05-06 11:04 | 35.56465 | 139.78644 | 31 ft | 3 kts | 60° |
| 2026-05-06 11:04 | 35.56479 | 139.78674 | 31 ft | 4 kts | 60° |
| 2026-05-06 11:04 | 35.56487 | 139.78705 | 31 ft | 3 kts | 92° |
| 2026-05-06 11:05 | 35.56478 | 139.78729 | 31 ft | 4 kts | 128° |
| 2026-05-06 11:05 | 35.56443 | 139.78760 | 31 ft | 6 kts | 150° |
| 2026-05-06 11:05 | 35.56402 | 139.78787 | 31 ft | 6 kts | 150° |
| 2026-05-06 11:05 | 35.56280 | 139.78874 | 31 ft | 43 kts | 149° |
| 2026-05-06 11:06 | 35.55824 | 139.79198 | 31 ft | 109 kts | 150° |
| 2026-05-06 11:06 | 35.54949 | 139.79822 | 48 ft | 176 kts | 152° |
| 2026-05-06 11:06 | 35.53847 | 139.80606 | 756 ft | 195 kts | 150° |
| 2026-05-06 11:06 | 35.52638 | 139.81561 | 1437 ft | 215 kts | 148° |
| 2026-05-06 11:07 | 35.51429 | 139.82790 | 1692 ft | 240 kts | 128° |
| 2026-05-06 11:07 | 35.50770 | 139.84744 | 2210 ft | 257 kts | 105° |
| 2026-05-06 11:07 | 35.50268 | 139.86903 | 2899 ft | 261 kts | 114° |
| 2026-05-06 11:07 | 35.49565 | 139.88972 | 3607 ft | 264 kts | 117° |
| 2026-05-06 11:08 | 35.48783 | 139.91007 | 4343 ft | 267 kts | 119° |
| 2026-05-06 11:08 | 35.48187 | 139.93182 | 5006 ft | 279 kts | 96° |
| 2026-05-06 11:08 | 35.48460 | 139.95538 | 5716 ft | 287 kts | 67° |
| 2026-05-06 11:08 | 35.49572 | 139.97563 | 6465 ft | 291 kts | 48° |
| 2026-05-06 11:09 | 35.50923 | 139.99425 | 7154 ft | 296 kts | 48° |
| 2026-05-06 11:09 | 35.52301 | 140.01325 | 7876 ft | 301 kts | 47° |
| 2026-05-06 11:09 | 35.53712 | 140.03233 | 8599 ft | 305 kts | 44° |
| 2026-05-06 11:09 | 35.55433 | 140.04739 | 9265 ft | 306 kts | 18° |
| 2026-05-06 11:10 | 35.57490 | 140.05183 | 9993 ft | 300 kts | 351° |
| 2026-05-06 11:10 | 35.59505 | 140.04542 | 10383 ft | 308 kts | 329° |
| 2026-05-06 11:10 | 35.61312 | 140.02995 | 10457 ft | 330 kts | 311° |
| 2026-05-06 11:10 | 35.62815 | 140.00687 | 10523 ft | 355 kts | 305° |
| 2026-05-06 11:11 | 35.64593 | 139.98520 | 11179 ft | 368 kts | 322° |
| 2026-05-06 11:11 | 35.66857 | 139.97031 | 11978 ft | 378 kts | 338° |
| 2026-05-06 11:11 | 35.69442 | 139.96333 | 12764 ft | 387 kts | 352° |
| 2026-05-06 11:11 | 35.72167 | 139.96390 | 13509 ft | 392 kts | 359° |
| 2026-05-06 11:12 | 35.74859 | 139.96205 | 14189 ft | 391 kts | 345° |
| 2026-05-06 11:12 | 35.77439 | 139.95180 | 14845 ft | 390 kts | 333° |
| 2026-05-06 11:12 | 35.79969 | 139.93895 | 15132 ft | 400 kts | 335° |
| 2026-05-06 11:12 | 35.82616 | 139.92645 | 15117 ft | 399 kts | 335° |
| 2026-05-06 11:13 | 35.85176 | 139.91435 | 15111 ft | 391 kts | 335° |
| 2026-05-06 11:13 | 35.87698 | 139.90245 | 15112 ft | 389 kts | 335° |
| 2026-05-06 11:13 | 35.90256 | 139.89040 | 15129 ft | 392 kts | 336° |
| 2026-05-06 11:13 | 35.92940 | 139.88197 | 15417 ft | 404 kts | 350° |
| 2026-05-06 11:14 | 35.95717 | 139.88104 | 16291 ft | 406 kts | 0° |
| 2026-05-06 11:14 | 35.98562 | 139.88632 | 16816 ft | 419 kts | 11° |
| 2026-05-06 11:14 | 36.01313 | 139.89816 | 17478 ft | 426 kts | 21° |
| 2026-05-06 11:14 | 36.03941 | 139.91641 | 18056 ft | 436 kts | 32° |
| 2026-05-06 11:15 | 36.06306 | 139.94029 | 18512 ft | 447 kts | 42° |
| 2026-05-06 11:15 | 36.08372 | 139.96959 | 18919 ft | 459 kts | 53° |
| 2026-05-06 11:15 | 36.10025 | 140.00311 | 19439 ft | 466 kts | 63° |
| 2026-05-06 11:15 | 36.11243 | 140.04042 | 19920 ft | 472 kts | 73° |
| 2026-05-06 11:16 | 36.11979 | 140.08015 | 20231 ft | 480 kts | 84° |
| 2026-05-06 11:16 | 36.12168 | 140.12132 | 20838 ft | 479 kts | 95° |
| 2026-05-06 11:16 | 36.11834 | 140.16248 | 21201 ft | 480 kts | 106° |
| 2026-05-06 11:16 | 36.10977 | 140.20197 | 21597 ft | 478 kts | 116° |
| 2026-05-06 11:17 | 36.09636 | 140.23872 | 22059 ft | 473 kts | 126° |
| 2026-05-06 11:17 | 36.07834 | 140.27232 | 22490 ft | 465 kts | 137° |
| 2026-05-06 11:17 | 36.05686 | 140.30197 | 23063 ft | 458 kts | 142° |
| 2026-05-06 11:17 | 36.03523 | 140.33066 | 23423 ft | 463 kts | 142° |
| 2026-05-06 11:18 | 36.01301 | 140.36011 | 23775 ft | 469 kts | 142° |
| 2026-05-06 11:18 | 35.99080 | 140.38951 | 24099 ft | 474 kts | 142° |
| 2026-05-06 11:18 | 35.96825 | 140.41934 | 24552 ft | 476 kts | 142° |
| 2026-05-06 11:18 | 35.94562 | 140.44926 | 24924 ft | 480 kts | 142° |
| 2026-05-06 11:19 | 35.92276 | 140.47942 | 25373 ft | 481 kts | 142° |
| 2026-05-06 11:19 | 35.90024 | 140.50920 | 25852 ft | 482 kts | 142° |
| 2026-05-06 11:19 | 35.87723 | 140.53947 | 26236 ft | 485 kts | 142° |
| 2026-05-06 11:19 | 35.85403 | 140.57001 | 26521 ft | 491 kts | 142° |
| 2026-05-06 11:20 | 35.83076 | 140.60060 | 26862 ft | 494 kts | 142° |
| 2026-05-06 11:20 | 35.80719 | 140.63158 | 27169 ft | 498 kts | 142° |
| 2026-05-06 11:20 | 35.78345 | 140.66286 | 27406 ft | 504 kts | 141° |
| 2026-05-06 11:20 | 35.76112 | 140.69727 | 27704 ft | 518 kts | 133° |
| 2026-05-06 11:21 | 35.74283 | 140.73589 | 27981 ft | 531 kts | 123° |
| 2026-05-06 11:21 | 35.72797 | 140.77803 | 28250 ft | 538 kts | 120° |
| 2026-05-06 11:21 | 35.71254 | 140.81947 | 28640 ft | 534 kts | 123° |
| 2026-05-06 11:22 | 35.67757 | 140.90076 | 29046 ft | 537 kts | 126° |
| 2026-05-06 11:22 | 35.65947 | 140.94064 | 29446 ft | 536 kts | 127° |
| 2026-05-06 11:22 | 35.64090 | 140.98074 | 29662 ft | 539 kts | 127° |
| 2026-05-06 11:22 | 35.62266 | 141.01999 | 30203 ft | 533 kts | 128° |
| 2026-05-06 11:23 | 35.60407 | 141.05963 | 30738 ft | 528 kts | 128° |
| 2026-05-06 11:23 | 35.58575 | 141.09848 | 30921 ft | 532 kts | 128° |
| 2026-05-06 11:23 | 35.56723 | 141.13776 | 31225 ft | 532 kts | 128° |
| 2026-05-06 11:23 | 35.54871 | 141.17703 | 31683 ft | 529 kts | 128° |
| 2026-05-06 11:24 | 35.53050 | 141.21559 | 32409 ft | 520 kts | 128° |
| 2026-05-06 11:24 | 35.49375 | 141.29292 | 32784 ft | 524 kts | 128° |
| 2026-05-06 11:24 | 35.47554 | 141.33127 | 33053 ft | 525 kts | 128° |
| 2026-05-06 11:25 | 35.45709 | 141.37010 | 33464 ft | 522 kts | 128° |
| 2026-05-06 11:25 | 35.43896 | 141.40820 | 33760 ft | 522 kts | 128° |
| 2026-05-06 11:25 | 35.42053 | 141.44688 | 34230 ft | 518 kts | 128° |
| 2026-05-06 11:25 | 35.40250 | 141.48468 | 34557 ft | 516 kts | 129° |
| 2026-05-06 11:26 | 35.38425 | 141.52281 | 34720 ft | 519 kts | 128° |
| 2026-05-06 11:26 | 35.36623 | 141.56053 | 35031 ft | 517 kts | 129° |
| 2026-05-06 11:26 | 35.34793 | 141.59885 | 35175 ft | 505 kts | 128° |
| 2026-05-06 11:27 | 35.31301 | 141.67163 | 35169 ft | 498 kts | 129° |
| 2026-05-06 11:27 | 35.28390 | 141.74976 | 35182 ft | 520 kts | 112° |
| 2026-05-06 11:27 | 35.27597 | 141.79402 | 35170 ft | 531 kts | 103° |
| 2026-05-06 11:28 | 35.27333 | 141.83974 | 35182 ft | 540 kts | 94° |
| 2026-05-06 11:28 | 35.27385 | 141.93184 | 35162 ft | 545 kts | 94° |
| 2026-05-06 11:29 | 35.27322 | 142.02446 | 35170 ft | 547 kts | 95° |
| 2026-05-06 11:29 | 35.27221 | 142.11762 | 35176 ft | 550 kts | 94° |
| 2026-05-06 11:30 | 35.27111 | 142.21088 | 35179 ft | 546 kts | 94° |
| 2026-05-06 11:30 | 35.26991 | 142.30356 | 35181 ft | 545 kts | 95° |
| 2026-05-06 11:31 | 35.26864 | 142.39586 | 35186 ft | 547 kts | 94° |
| 2026-05-06 11:31 | 35.26732 | 142.48836 | 35184 ft | 546 kts | 94° |
| 2026-05-06 11:32 | 35.26589 | 142.58139 | 35192 ft | 549 kts | 94° |
| 2026-05-06 11:32 | 35.26443 | 142.67407 | 35177 ft | 543 kts | 95° |
| 2026-05-06 11:33 | 35.26287 | 142.76579 | 35167 ft | 544 kts | 95° |
| 2026-05-06 11:33 | 35.26123 | 142.85847 | 35182 ft | 546 kts | 96° |
| 2026-05-06 11:34 | 35.25954 | 142.95125 | 35188 ft | 546 kts | 94° |
| 2026-05-06 11:34 | 35.25780 | 143.04378 | 35197 ft | 545 kts | 96° |
| 2026-05-06 11:35 | 35.25593 | 143.13652 | 35193 ft | 544 kts | 95° |
| 2026-05-06 11:35 | 35.25404 | 143.22842 | 35190 ft | 546 kts | 95° |
| 2026-05-06 11:36 | 35.25207 | 143.32118 | 35195 ft | 546 kts | 95° |
| 2026-05-06 11:36 | 35.25432 | 143.41373 | 35191 ft | 546 kts | 91° |
| 2026-05-06 11:37 | 35.25699 | 143.50674 | 35193 ft | 544 kts | 91° |
| 2026-05-06 11:37 | 35.25946 | 143.59927 | 35203 ft | 544 kts | 91° |
| 2026-05-06 11:38 | 35.26189 | 143.69139 | 35193 ft | 546 kts | 91° |
| 2026-05-06 11:38 | 35.26424 | 143.78395 | 35202 ft | 543 kts | 91° |
| 2026-05-06 11:39 | 35.26647 | 143.87535 | 35223 ft | 543 kts | 91° |
| 2026-05-06 11:39 | 35.26868 | 143.96765 | 35208 ft | 543 kts | 91° |
| 2026-05-06 11:40 | 35.27084 | 144.05966 | 35207 ft | 541 kts | 92° |
| 2026-05-06 11:40 | 35.27285 | 144.15155 | 35210 ft | 546 kts | 92° |
| 2026-05-06 11:41 | 35.27488 | 144.24455 | 35208 ft | 541 kts | 91° |
| 2026-05-06 11:41 | 35.27680 | 144.33621 | 35221 ft | 542 kts | 92° |
| 2026-05-06 11:42 | 35.27861 | 144.42809 | 35226 ft | 544 kts | 91° |
| 2026-05-06 11:42 | 35.28043 | 144.52052 | 35219 ft | 543 kts | 91° |
| 2026-05-06 11:43 | 35.28215 | 144.61307 | 35222 ft | 543 kts | 91° |
| 2026-05-06 11:43 | 35.28378 | 144.70525 | 35203 ft | 545 kts | 91° |
| 2026-05-06 11:44 | 35.28612 | 144.84433 | 35224 ft | 544 kts | 91° |
| 2026-05-06 11:44 | 35.28759 | 144.93655 | 35227 ft | 548 kts | 92° |
| 2026-05-06 11:45 | 35.29048 | 145.02918 | 35227 ft | 544 kts | 90° |
| 2026-05-06 11:45 | 35.29383 | 145.12158 | 35235 ft | 546 kts | 90° |
| 2026-05-06 11:46 | 35.29709 | 145.21397 | 35241 ft | 547 kts | 90° |
| 2026-05-06 11:46 | 35.30029 | 145.30696 | 35241 ft | 545 kts | 90° |
| 2026-05-06 11:47 | 35.30339 | 145.39957 | 35242 ft | 546 kts | 89° |
| 2026-05-06 11:47 | 35.30646 | 145.49228 | 35251 ft | 547 kts | 90° |
| 2026-05-06 11:48 | 35.30943 | 145.58460 | 35253 ft | 543 kts | 90° |
| 2026-05-06 11:48 | 35.31234 | 145.67731 | 35243 ft | 545 kts | 90° |
| 2026-05-06 11:49 | 35.31514 | 145.76993 | 35249 ft | 547 kts | 89° |
| 2026-05-06 11:49 | 35.31792 | 145.86255 | 35254 ft | 546 kts | 90° |
| 2026-05-06 11:50 | 35.32064 | 145.95544 | 35252 ft | 545 kts | 89° |
| 2026-05-06 11:50 | 35.31824 | 146.04739 | 35263 ft | 543 kts | 97° |
| 2026-05-06 11:51 | 35.31250 | 146.13979 | 35261 ft | 544 kts | 97° |
| 2026-05-06 11:51 | 35.30654 | 146.23163 | 35257 ft | 544 kts | 97° |
| 2026-05-06 11:52 | 35.30047 | 146.32384 | 35254 ft | 543 kts | 97° |
| 2026-05-06 11:52 | 35.29438 | 146.41539 | 35248 ft | 541 kts | 97° |
| 2026-05-06 11:53 | 35.28817 | 146.50716 | 35244 ft | 543 kts | 97° |
| 2026-05-06 11:53 | 35.28190 | 146.59904 | 35250 ft | 542 kts | 97° |
| 2026-05-06 11:54 | 35.27560 | 146.69069 | 35226 ft | 537 kts | 98° |
| 2026-05-06 11:54 | 35.26927 | 146.78093 | 35235 ft | 538 kts | 98° |
| 2026-05-06 11:55 | 35.26286 | 146.87174 | 35247 ft | 538 kts | 98° |
| 2026-05-06 11:55 | 35.25639 | 146.96263 | 35245 ft | 536 kts | 98° |
| 2026-05-06 11:56 | 35.24983 | 147.05359 | 35238 ft | 536 kts | 98° |
| 2026-05-06 11:56 | 35.24327 | 147.14375 | 35244 ft | 537 kts | 98° |
| 2026-05-06 11:57 | 35.23656 | 147.23474 | 35236 ft | 539 kts | 98° |
| 2026-05-06 11:57 | 35.22974 | 147.32626 | 35250 ft | 543 kts | 97° |
| 2026-05-06 11:58 | 35.22282 | 147.41859 | 35262 ft | 544 kts | 97° |
| 2026-05-06 11:58 | 35.21585 | 147.51036 | 35258 ft | 543 kts | 98° |
| 2026-05-06 11:59 | 35.20880 | 147.60217 | 35265 ft | 545 kts | 97° |
| 2026-05-06 11:59 | 35.20173 | 147.69382 | 35257 ft | 544 kts | 98° |
| 2026-05-06 12:00 | 35.19451 | 147.78601 | 35265 ft | 546 kts | 98° |
| 2026-05-06 12:00 | 35.18718 | 147.87875 | 35267 ft | 547 kts | 97° |
| 2026-05-06 12:01 | 35.17984 | 147.97095 | 35269 ft | 548 kts | 98° |
| 2026-05-06 12:01 | 35.17234 | 148.06409 | 35272 ft | 552 kts | 97° |
| 2026-05-06 12:02 | 35.16482 | 148.15651 | 35276 ft | 549 kts | 97° |
| 2026-05-06 12:02 | 35.15726 | 148.24878 | 35281 ft | 548 kts | 97° |
| 2026-05-06 12:03 | 35.14959 | 148.34132 | 35284 ft | 551 kts | 97° |
| 2026-05-06 12:03 | 35.14184 | 148.43407 | 35283 ft | 549 kts | 97° |
| 2026-05-06 12:04 | 35.13403 | 148.52647 | 35281 ft | 545 kts | 97° |
| 2026-05-06 12:04 | 35.12619 | 148.61861 | 35287 ft | 549 kts | 97° |
| 2026-05-06 12:05 | 35.11829 | 148.71028 | 35271 ft | 545 kts | 97° |
| 2026-05-06 12:05 | 35.11030 | 148.80269 | 35275 ft | 547 kts | 98° |
| 2026-05-06 12:06 | 35.10218 | 148.89523 | 35280 ft | 547 kts | 98° |
| 2026-05-06 12:06 | 35.09412 | 148.98677 | 35279 ft | 546 kts | 97° |
| 2026-05-06 12:07 | 35.08591 | 149.07887 | 35281 ft | 543 kts | 97° |
| 2026-05-06 12:07 | 35.07771 | 149.17011 | 35285 ft | 544 kts | 97° |
| 2026-05-06 12:08 | 35.06944 | 149.26150 | 35280 ft | 543 kts | 97° |
| 2026-05-06 12:08 | 35.06110 | 149.35281 | 35280 ft | 543 kts | 97° |
| 2026-05-06 12:09 | 35.05269 | 149.44408 | 35285 ft | 544 kts | 98° |
| 2026-05-06 12:09 | 35.04415 | 149.53597 | 35287 ft | 545 kts | 96° |
| 2026-05-06 12:10 | 35.03560 | 149.62741 | 35288 ft | 545 kts | 97° |
| 2026-05-06 12:10 | 35.02696 | 149.71893 | 35268 ft | 543 kts | 98° |
| 2026-05-06 12:11 | 35.01820 | 149.81073 | 35273 ft | 544 kts | 97° |
| 2026-05-06 12:11 | 35.00943 | 149.90213 | 35276 ft | 546 kts | 97° |
| 2026-05-06 12:12 | 35.00260 | 149.99348 | 35270 ft | 543 kts | 88° |
| 2026-05-06 12:12 | 35.01189 | 150.08435 | 35286 ft | 542 kts | 78° |
| 2026-05-06 12:13 | 35.02473 | 150.17389 | 35278 ft | 542 kts | 78° |
| 2026-05-06 12:13 | 35.03769 | 150.26570 | 35289 ft | 546 kts | 77° |
| 2026-05-06 12:14 | 35.05043 | 150.35646 | 35289 ft | 546 kts | 77° |
| 2026-05-06 12:14 | 35.06316 | 150.44783 | 35288 ft | 547 kts | 78° |
| 2026-05-06 12:15 | 35.07589 | 150.53966 | 35297 ft | 549 kts | 78° |
| 2026-05-06 12:15 | 35.08849 | 150.63118 | 35296 ft | 549 kts | 77° |
| 2026-05-06 12:16 | 35.10112 | 150.72328 | 35292 ft | 550 kts | 78° |
| 2026-05-06 12:16 | 35.11370 | 150.81586 | 35293 ft | 553 kts | 78° |
| 2026-05-06 12:17 | 35.12621 | 150.90813 | 35311 ft | 551 kts | 78° |
| 2026-05-06 12:17 | 35.13858 | 151.00006 | 35314 ft | 551 kts | 78° |
| 2026-05-06 12:18 | 35.15096 | 151.09264 | 35320 ft | 554 kts | 78° |
| 2026-05-06 12:18 | 35.16328 | 151.18533 | 35316 ft | 552 kts | 77° |
| 2026-05-06 12:19 | 35.17552 | 151.27791 | 35318 ft | 551 kts | 78° |
| 2026-05-06 12:19 | 35.18760 | 151.36987 | 35321 ft | 552 kts | 77° |
| 2026-05-06 12:20 | 35.19967 | 151.46228 | 35332 ft | 552 kts | 77° |
| 2026-05-06 12:20 | 35.21160 | 151.55421 | 35321 ft | 550 kts | 78° |
| 2026-05-06 12:21 | 35.22353 | 151.64664 | 35330 ft | 551 kts | 77° |
| 2026-05-06 12:21 | 35.23531 | 151.73854 | 35309 ft | 550 kts | 78° |
| 2026-05-06 12:22 | 35.24715 | 151.83145 | 35315 ft | 551 kts | 78° |
| 2026-05-06 12:22 | 35.25882 | 151.92371 | 35316 ft | 549 kts | 77° |
| 2026-05-06 12:23 | 35.27040 | 152.01566 | 35321 ft | 549 kts | 78° |
| 2026-05-06 12:23 | 35.28192 | 152.10785 | 35314 ft | 549 kts | 78° |
| 2026-05-06 12:24 | 35.29337 | 152.19991 | 35314 ft | 552 kts | 77° |
| 2026-05-06 12:24 | 35.30473 | 152.29205 | 35320 ft | 547 kts | 78° |
| 2026-05-06 12:25 | 35.31606 | 152.38435 | 35322 ft | 546 kts | 78° |
| 2026-05-06 12:25 | 35.32719 | 152.47578 | 35320 ft | 548 kts | 77° |
| 2026-05-06 12:26 | 35.33837 | 152.56808 | 35326 ft | 549 kts | 77° |
| 2026-05-06 12:26 | 35.34949 | 152.66052 | 35325 ft | 546 kts | 78° |
| 2026-05-06 12:27 | 35.36052 | 152.75288 | 35311 ft | 550 kts | 78° |
| 2026-05-06 12:27 | 35.37148 | 152.84506 | 35312 ft | 548 kts | 79° |
| 2026-05-06 12:28 | 35.38232 | 152.93718 | 35317 ft | 547 kts | 78° |
| 2026-05-06 12:28 | 35.39311 | 153.02928 | 35317 ft | 546 kts | 78° |
| 2026-05-06 12:29 | 35.40379 | 153.12106 | 35319 ft | 548 kts | 78° |
| 2026-05-06 12:29 | 35.41436 | 153.21271 | 35319 ft | 545 kts | 78° |
| 2026-05-06 12:30 | 35.42499 | 153.30518 | 35318 ft | 550 kts | 78° |
| 2026-05-06 12:30 | 35.43548 | 153.39739 | 35320 ft | 551 kts | 78° |
| 2026-05-06 12:31 | 35.44596 | 153.48987 | 35312 ft | 548 kts | 79° |
| 2026-05-06 12:31 | 35.45635 | 153.58254 | 35317 ft | 548 kts | 78° |
| 2026-05-06 12:32 | 35.46665 | 153.67477 | 35306 ft | 549 kts | 79° |
| 2026-05-06 12:32 | 35.47686 | 153.76689 | 35307 ft | 549 kts | 79° |
| 2026-05-06 12:33 | 35.48711 | 153.86012 | 35322 ft | 552 kts | 79° |
| 2026-05-06 12:33 | 35.49728 | 153.95317 | 35327 ft | 551 kts | 78° |
| 2026-05-06 12:34 | 35.50733 | 154.04591 | 35333 ft | 550 kts | 78° |
| 2026-05-06 12:34 | 35.51728 | 154.13846 | 35332 ft | 550 kts | 79° |
| 2026-05-06 12:35 | 35.52718 | 154.23100 | 35335 ft | 549 kts | 79° |
| 2026-05-06 12:35 | 35.53706 | 154.32414 | 35341 ft | 550 kts | 79° |
| 2026-05-06 12:36 | 35.54678 | 154.41673 | 35335 ft | 550 kts | 78° |
| 2026-05-06 12:36 | 35.55650 | 154.50980 | 35340 ft | 549 kts | 79° |
| 2026-05-06 12:37 | 35.56612 | 154.60257 | 35336 ft | 552 kts | 79° |
| 2026-05-06 12:37 | 35.57570 | 154.69574 | 35309 ft | 548 kts | 79° |
| 2026-05-06 12:38 | 35.58512 | 154.78796 | 35323 ft | 550 kts | 79° |
| 2026-05-06 12:38 | 35.59451 | 154.88080 | 35325 ft | 548 kts | 79° |
| 2026-05-06 12:39 | 35.60386 | 154.97385 | 35333 ft | 551 kts | 79° |
| 2026-05-06 12:39 | 35.61319 | 155.06717 | 35328 ft | 550 kts | 80° |
| 2026-05-06 12:40 | 35.62233 | 155.15971 | 35332 ft | 548 kts | 79° |
| 2026-05-06 12:40 | 35.63142 | 155.25238 | 35337 ft | 549 kts | 79° |
| 2026-05-06 12:41 | 35.64045 | 155.34526 | 35335 ft | 549 kts | 79° |
| 2026-05-06 12:41 | 35.64938 | 155.43774 | 35337 ft | 546 kts | 79° |
| 2026-05-06 12:42 | 35.65830 | 155.53078 | 35339 ft | 547 kts | 80° |
| 2026-05-06 12:42 | 35.66704 | 155.62288 | 35339 ft | 546 kts | 79° |
| 2026-05-06 12:43 | 35.67576 | 155.71556 | 35324 ft | 545 kts | 80° |
| 2026-05-06 12:43 | 35.68438 | 155.80771 | 35327 ft | 545 kts | 81° |
| 2026-05-06 12:44 | 35.69289 | 155.89978 | 35326 ft | 543 kts | 81° |
| 2026-05-06 12:44 | 35.70141 | 155.99239 | 35334 ft | 544 kts | 80° |
| 2026-05-06 12:45 | 35.70977 | 156.08435 | 35345 ft | 544 kts | 80° |
| 2026-05-06 12:46 | 35.72224 | 156.22281 | 35350 ft | 543 kts | 80° |
| 2026-05-06 12:46 | 35.73044 | 156.31471 | 35349 ft | 544 kts | 80° |
| 2026-05-06 12:47 | 35.73861 | 156.40727 | 35348 ft | 544 kts | 80° |
| 2026-05-06 12:47 | 35.74665 | 156.49933 | 35345 ft | 542 kts | 80° |
| 2026-05-06 12:48 | 35.75464 | 156.59114 | 35350 ft | 543 kts | 81° |
| 2026-05-06 12:48 | 35.76257 | 156.68349 | 35331 ft | 543 kts | 81° |
| 2026-05-06 12:49 | 35.77041 | 156.77557 | 35334 ft | 542 kts | 81° |
| 2026-05-06 12:49 | 35.77815 | 156.86725 | 35335 ft | 541 kts | 81° |
| 2026-05-06 12:50 | 35.78587 | 156.95953 | 35338 ft | 543 kts | 81° |
| 2026-05-06 12:50 | 35.79345 | 157.05110 | 35335 ft | 540 kts | 81° |
| 2026-05-06 12:51 | 35.80104 | 157.14340 | 35339 ft | 542 kts | 81° |
| 2026-05-06 12:51 | 35.80856 | 157.23590 | 35341 ft | 544 kts | 81° |
| 2026-05-06 12:52 | 35.81598 | 157.32811 | 35341 ft | 544 kts | 81° |
| 2026-05-06 12:52 | 35.82331 | 157.42011 | 35342 ft | 542 kts | 81° |
| 2026-05-06 12:53 | 35.83062 | 157.51257 | 35347 ft | 544 kts | 81° |
| 2026-05-06 12:53 | 35.83786 | 157.60532 | 35344 ft | 544 kts | 81° |
| 2026-05-06 12:54 | 35.84502 | 157.69781 | 35326 ft | 542 kts | 81° |
| 2026-05-06 12:54 | 35.85210 | 157.79009 | 35333 ft | 544 kts | 82° |
| 2026-05-06 12:55 | 35.85913 | 157.88278 | 35333 ft | 544 kts | 81° |
| 2026-05-06 12:55 | 35.86608 | 157.97546 | 35337 ft | 543 kts | 82° |
| 2026-05-06 12:56 | 35.87296 | 158.06799 | 35338 ft | 545 kts | 81° |
| 2026-05-06 12:56 | 35.87976 | 158.16060 | 35337 ft | 543 kts | 81° |
| 2026-05-06 12:57 | 35.88652 | 158.25337 | 35341 ft | 546 kts | 82° |
| 2026-05-06 12:57 | 35.89321 | 158.34641 | 35338 ft | 546 kts | 81° |
| 2026-05-06 12:58 | 35.89984 | 158.43951 | 35336 ft | 546 kts | 81° |
| 2026-05-06 12:58 | 35.90636 | 158.53247 | 35334 ft | 545 kts | 81° |
| 2026-05-06 12:59 | 35.91284 | 158.62540 | 35337 ft | 546 kts | 82° |
| 2026-05-06 12:59 | 35.91923 | 158.71835 | 35326 ft | 545 kts | 82° |
| 2026-05-06 13:00 | 35.92558 | 158.81161 | 35330 ft | 546 kts | 82° |
| 2026-05-06 13:00 | 35.93185 | 158.90485 | 35324 ft | 548 kts | 82° |
| 2026-05-06 13:01 | 35.93805 | 158.99800 | 35332 ft | 549 kts | 82° |
| 2026-05-06 13:01 | 35.94418 | 159.09149 | 35339 ft | 548 kts | 82° |
| 2026-05-06 13:02 | 35.95021 | 159.18449 | 35344 ft | 547 kts | 82° |
| 2026-05-06 13:02 | 35.95620 | 159.27779 | 35351 ft | 550 kts | 82° |
| 2026-05-06 13:03 | 35.96212 | 159.37160 | 35348 ft | 547 kts | 82° |
| 2026-05-06 13:03 | 35.96797 | 159.46478 | 35348 ft | 547 kts | 82° |
| 2026-05-06 13:04 | 35.97375 | 159.55864 | 35351 ft | 548 kts | 82° |
| 2026-05-06 13:04 | 35.97946 | 159.65193 | 35349 ft | 547 kts | 83° |
| 2026-05-06 13:05 | 35.98505 | 159.74498 | 35334 ft | 547 kts | 83° |
| 2026-05-06 13:05 | 35.99062 | 159.83888 | 35333 ft | 548 kts | 83° |
| 2026-05-06 13:06 | 35.99611 | 159.93239 | 35334 ft | 549 kts | 83° |
| 2026-05-06 13:06 | 35.99686 | 160.02608 | 35346 ft | 549 kts | 91° |
| 2026-05-06 13:07 | 35.99261 | 160.11981 | 35348 ft | 551 kts | 92° |
| 2026-05-06 13:07 | 35.98733 | 160.21445 | 35347 ft | 552 kts | 93° |
| 2026-05-06 13:08 | 35.98174 | 160.30891 | 35349 ft | 552 kts | 92° |
| 2026-05-06 13:08 | 35.97605 | 160.40303 | 35350 ft | 552 kts | 92° |
| 2026-05-06 13:09 | 35.97030 | 160.49681 | 35350 ft | 552 kts | 92° |
| 2026-05-06 13:09 | 35.96443 | 160.59122 | 35344 ft | 550 kts | 92° |
| 2026-05-06 13:10 | 35.95849 | 160.68543 | 35323 ft | 552 kts | 93° |
| 2026-05-06 13:10 | 35.95251 | 160.77905 | 35332 ft | 553 kts | 92° |
| 2026-05-06 13:11 | 35.94643 | 160.87343 | 35331 ft | 552 kts | 92° |
| 2026-05-06 13:11 | 35.94023 | 160.96806 | 35337 ft | 555 kts | 93° |
| 2026-05-06 13:12 | 35.93396 | 161.06262 | 35335 ft | 551 kts | 93° |
| 2026-05-06 13:12 | 35.92767 | 161.15651 | 35339 ft | 553 kts | 92° |
| 2026-05-06 13:13 | 35.92130 | 161.25066 | 35340 ft | 553 kts | 93° |
| 2026-05-06 13:13 | 35.91483 | 161.34514 | 35346 ft | 554 kts | 93° |
| 2026-05-06 13:14 | 35.90830 | 161.43942 | 35352 ft | 553 kts | 92° |
| 2026-05-06 13:14 | 35.90167 | 161.53386 | 35355 ft | 555 kts | 92° |
| 2026-05-06 13:15 | 35.89496 | 161.62833 | 35357 ft | 555 kts | 92° |
| 2026-05-06 13:15 | 35.88818 | 161.72296 | 35347 ft | 553 kts | 93° |
| 2026-05-06 13:16 | 35.88133 | 161.81722 | 35350 ft | 552 kts | 93° |
| 2026-05-06 13:16 | 35.87444 | 161.91118 | 35357 ft | 554 kts | 94° |
| 2026-05-06 13:17 | 35.86749 | 162.00493 | 35356 ft | 552 kts | 93° |
| 2026-05-06 13:17 | 35.86043 | 162.09923 | 35358 ft | 554 kts | 93° |
| 2026-05-06 13:18 | 35.85330 | 162.19344 | 35355 ft | 554 kts | 93° |
| 2026-05-06 13:18 | 35.84610 | 162.28743 | 35360 ft | 553 kts | 93° |
| 2026-05-06 13:19 | 35.83887 | 162.38127 | 35365 ft | 554 kts | 93° |
| 2026-05-06 13:19 | 35.83149 | 162.47566 | 35364 ft | 554 kts | 93° |
| 2026-05-06 13:20 | 35.82406 | 162.57002 | 35370 ft | 554 kts | 93° |
| 2026-05-06 13:20 | 35.81653 | 162.66443 | 35363 ft | 555 kts | 94° |
| 2026-05-06 13:21 | 35.80895 | 162.75858 | 35355 ft | 555 kts | 94° |
| 2026-05-06 13:21 | 35.80127 | 162.85306 | 35354 ft | 556 kts | 94° |
| 2026-05-06 13:22 | 35.79353 | 162.94739 | 35353 ft | 557 kts | 94° |
| 2026-05-06 13:22 | 35.78571 | 163.04185 | 35359 ft | 555 kts | 94° |
| 2026-05-06 13:23 | 35.77782 | 163.13603 | 35361 ft | 554 kts | 93° |
| 2026-05-06 13:23 | 35.76989 | 163.22987 | 35363 ft | 553 kts | 93° |
| 2026-05-06 13:24 | 35.76185 | 163.32433 | 35363 ft | 555 kts | 94° |
| 2026-05-06 13:24 | 35.75374 | 163.41861 | 35369 ft | 556 kts | 94° |
| 2026-05-06 13:25 | 35.74556 | 163.51273 | 35377 ft | 553 kts | 94° |
| 2026-05-06 13:25 | 35.73729 | 163.60696 | 35384 ft | 556 kts | 93° |
| 2026-05-06 13:26 | 35.72895 | 163.70149 | 35360 ft | 556 kts | 95° |
| 2026-05-06 13:26 | 35.72057 | 163.79549 | 35366 ft | 556 kts | 95° |
| 2026-05-06 13:27 | 35.71204 | 163.89008 | 35363 ft | 557 kts | 94° |
| 2026-05-06 13:27 | 35.70351 | 163.98395 | 35364 ft | 556 kts | 95° |
| 2026-05-06 13:28 | 35.69484 | 164.07855 | 35369 ft | 557 kts | 94° |
| 2026-05-06 13:28 | 35.68611 | 164.17307 | 35364 ft | 558 kts | 95° |
| 2026-05-06 13:29 | 35.67731 | 164.26739 | 35364 ft | 557 kts | 94° |
| 2026-05-06 13:29 | 35.66845 | 164.36160 | 35366 ft | 557 kts | 94° |
| 2026-05-06 13:30 | 35.65950 | 164.45609 | 35366 ft | 556 kts | 94° |
| 2026-05-06 13:30 | 35.65050 | 164.54999 | 35367 ft | 556 kts | 95° |
| 2026-05-06 13:31 | 35.64140 | 164.64452 | 35370 ft | 554 kts | 95° |
| 2026-05-06 13:31 | 35.63224 | 164.73848 | 35357 ft | 557 kts | 95° |
| 2026-05-06 13:32 | 35.62302 | 164.83241 | 35355 ft | 556 kts | 95° |
| 2026-05-06 13:32 | 35.61378 | 164.92613 | 35357 ft | 555 kts | 96° |
| 2026-05-06 13:33 | 35.60447 | 165.01953 | 35354 ft | 556 kts | 95° |
| 2026-05-06 13:33 | 35.59497 | 165.11409 | 35357 ft | 557 kts | 96° |
| 2026-05-06 13:34 | 35.58546 | 165.20810 | 35360 ft | 556 kts | 95° |
| 2026-05-06 13:34 | 35.57582 | 165.30257 | 35352 ft | 556 kts | 96° |
| 2026-05-06 13:35 | 35.56611 | 165.39687 | 35354 ft | 556 kts | 96° |
| 2026-05-06 13:35 | 35.55636 | 165.49107 | 35357 ft | 557 kts | 96° |
| 2026-05-06 13:36 | 35.54656 | 165.58478 | 35358 ft | 556 kts | 95° |
| 2026-05-06 13:36 | 35.53666 | 165.67889 | 35341 ft | 556 kts | 96° |
| 2026-05-06 13:37 | 35.52679 | 165.77193 | 35339 ft | 554 kts | 96° |
| 2026-05-06 13:37 | 35.51671 | 165.86618 | 35345 ft | 557 kts | 96° |
| 2026-05-06 13:38 | 35.50661 | 165.96014 | 35348 ft | 556 kts | 96° |
| 2026-05-06 13:38 | 35.49646 | 166.05376 | 35353 ft | 556 kts | 96° |
| 2026-05-06 13:39 | 35.48620 | 166.14775 | 35357 ft | 557 kts | 96° |
| 2026-05-06 13:39 | 35.47591 | 166.24106 | 35359 ft | 552 kts | 96° |
| 2026-05-06 13:40 | 35.46555 | 166.33441 | 35363 ft | 555 kts | 96° |
| 2026-05-06 13:40 | 35.45514 | 166.42769 | 35359 ft | 555 kts | 96° |
| 2026-05-06 13:41 | 35.44469 | 166.52066 | 35358 ft | 550 kts | 96° |
| 2026-05-06 13:41 | 35.43418 | 166.61365 | 35363 ft | 554 kts | 97° |
| 2026-05-06 13:42 | 35.42353 | 166.70695 | 35342 ft | 554 kts | 97° |
| 2026-05-06 13:42 | 35.41277 | 166.80054 | 35342 ft | 553 kts | 97° |
| 2026-05-06 13:43 | 35.40202 | 166.89346 | 35355 ft | 553 kts | 97° |
| 2026-05-06 13:43 | 35.39118 | 166.98668 | 35360 ft | 553 kts | 97° |
| 2026-05-06 13:44 | 35.38036 | 167.07881 | 35361 ft | 550 kts | 97° |
| 2026-05-06 13:44 | 35.36941 | 167.17162 | 35363 ft | 552 kts | 97° |
| 2026-05-06 13:45 | 35.35838 | 167.26454 | 35364 ft | 553 kts | 97° |
| 2026-05-06 13:45 | 35.34166 | 167.40405 | 35360 ft | 553 kts | 97° |
| 2026-05-06 13:46 | 35.33040 | 167.49724 | 35361 ft | 553 kts | 97° |
| 2026-05-06 13:46 | 35.31920 | 167.58926 | 35361 ft | 552 kts | 97° |
| 2026-05-06 13:47 | 35.30786 | 167.68193 | 35337 ft | 553 kts | 98° |
| 2026-05-06 13:47 | 35.29635 | 167.77530 | 35342 ft | 555 kts | 98° |
| 2026-05-06 13:48 | 35.28471 | 167.86903 | 35343 ft | 554 kts | 98° |
| 2026-05-06 13:48 | 35.27317 | 167.96164 | 35344 ft | 554 kts | 98° |
| 2026-05-06 13:49 | 35.26141 | 168.05516 | 35345 ft | 555 kts | 98° |
| 2026-05-06 13:49 | 35.24975 | 168.14751 | 35350 ft | 554 kts | 98° |
| 2026-05-06 13:50 | 35.23789 | 168.24065 | 35345 ft | 553 kts | 98° |
| 2026-05-06 13:50 | 35.22599 | 168.33357 | 35355 ft | 555 kts | 98° |
| 2026-05-06 13:51 | 35.21402 | 168.42648 | 35353 ft | 555 kts | 98° |
| 2026-05-06 13:51 | 35.20200 | 168.51929 | 35351 ft | 553 kts | 98° |
| 2026-05-06 13:52 | 35.18998 | 168.61133 | 35352 ft | 553 kts | 98° |
| 2026-05-06 13:52 | 35.17783 | 168.70406 | 35329 ft | 553 kts | 99° |
| 2026-05-06 13:53 | 35.16565 | 168.79617 | 35337 ft | 553 kts | 98° |
| 2026-05-06 13:53 | 35.15332 | 168.88905 | 35344 ft | 553 kts | 98° |
| 2026-05-06 13:54 | 35.14101 | 168.98114 | 35342 ft | 551 kts | 99° |
| 2026-05-06 13:54 | 35.12860 | 169.07358 | 35341 ft | 553 kts | 99° |
| 2026-05-06 13:55 | 35.11612 | 169.16586 | 35348 ft | 553 kts | 98° |
| 2026-05-06 13:55 | 35.10354 | 169.25821 | 35342 ft | 550 kts | 99° |
| 2026-05-06 13:56 | 35.09103 | 169.34969 | 35347 ft | 551 kts | 98° |
| 2026-05-06 13:56 | 35.07831 | 169.44217 | 35346 ft | 553 kts | 98° |
| 2026-05-06 13:57 | 35.06549 | 169.53470 | 35339 ft | 551 kts | 99° |
| 2026-05-06 13:57 | 35.05268 | 169.62672 | 35345 ft | 553 kts | 99° |
| 2026-05-06 13:58 | 35.03979 | 169.71881 | 35313 ft | 551 kts | 100° |
| 2026-05-06 13:58 | 35.02683 | 169.81073 | 35319 ft | 553 kts | 100° |
| 2026-05-06 13:59 | 35.01369 | 169.90361 | 35323 ft | 552 kts | 101° |
| 2026-05-06 13:59 | 35.00059 | 169.99509 | 35319 ft | 552 kts | 101° |
| 2026-05-06 14:00 | 34.98639 | 170.08694 | 35322 ft | 549 kts | 101° |
| 2026-05-06 14:00 | 34.97214 | 170.17833 | 35323 ft | 551 kts | 101° |
| 2026-05-06 14:01 | 34.95787 | 170.26924 | 35321 ft | 545 kts | 102° |
| 2026-05-06 14:01 | 34.94349 | 170.36011 | 35328 ft | 547 kts | 101° |
| 2026-05-06 14:02 | 34.92912 | 170.45067 | 35328 ft | 544 kts | 102° |
| 2026-05-06 14:02 | 34.91478 | 170.54053 | 35331 ft | 542 kts | 102° |
| 2026-05-06 14:03 | 34.90039 | 170.63022 | 35329 ft | 542 kts | 101° |
| 2026-05-06 14:03 | 34.88593 | 170.72002 | 35311 ft | 540 kts | 103° |
| 2026-05-06 14:04 | 34.87145 | 170.80936 | 35318 ft | 539 kts | 102° |
| 2026-05-06 14:04 | 34.85686 | 170.89914 | 35316 ft | 538 kts | 102° |
| 2026-05-06 14:05 | 34.84228 | 170.98827 | 35316 ft | 538 kts | 103° |
| 2026-05-06 14:05 | 34.82773 | 171.07678 | 35321 ft | 537 kts | 103° |
| 2026-05-06 14:06 | 34.81307 | 171.16562 | 35321 ft | 536 kts | 103° |
| 2026-05-06 14:06 | 34.79832 | 171.25462 | 35317 ft | 537 kts | 103° |
| 2026-05-06 14:07 | 34.78342 | 171.34390 | 35312 ft | 538 kts | 103° |
| 2026-05-06 14:07 | 34.76851 | 171.43295 | 35309 ft | 537 kts | 103° |
| 2026-05-06 14:08 | 34.75358 | 171.52173 | 35309 ft | 538 kts | 103° |
| 2026-05-06 14:08 | 34.73864 | 171.61017 | 35308 ft | 537 kts | 103° |
| 2026-05-06 14:09 | 34.72352 | 171.69914 | 35290 ft | 537 kts | 103° |
| 2026-05-06 14:09 | 34.70846 | 171.78746 | 35294 ft | 536 kts | 104° |
| 2026-05-06 14:10 | 34.69327 | 171.87605 | 35300 ft | 538 kts | 103° |
| 2026-05-06 14:10 | 34.67789 | 171.96545 | 35298 ft | 537 kts | 103° |
| 2026-05-06 14:11 | 34.66262 | 172.05366 | 35296 ft | 535 kts | 104° |
| 2026-05-06 14:11 | 34.64733 | 172.14171 | 35298 ft | 538 kts | 104° |
| 2026-05-06 14:12 | 34.63182 | 172.23065 | 35298 ft | 536 kts | 104° |
| 2026-05-06 14:12 | 34.61630 | 172.31911 | 35300 ft | 538 kts | 104° |
| 2026-05-06 14:13 | 34.60076 | 172.40738 | 35301 ft | 537 kts | 104° |
| 2026-05-06 14:13 | 34.58509 | 172.49593 | 35301 ft | 537 kts | 104° |
| 2026-05-06 14:14 | 34.56946 | 172.58383 | 35304 ft | 536 kts | 104° |
| 2026-05-06 14:14 | 34.55367 | 172.67239 | 35291 ft | 538 kts | 104° |
| 2026-05-06 14:15 | 34.53780 | 172.76088 | 35282 ft | 537 kts | 104° |
| 2026-05-06 14:15 | 34.52191 | 172.84914 | 35288 ft | 537 kts | 104° |
| 2026-05-06 14:16 | 34.50595 | 172.93736 | 35295 ft | 539 kts | 104° |
| 2026-05-06 14:16 | 34.48983 | 173.02614 | 35296 ft | 538 kts | 104° |
| 2026-05-06 14:17 | 34.47377 | 173.11417 | 35298 ft | 537 kts | 104° |
| 2026-05-06 14:17 | 34.45751 | 173.20299 | 35297 ft | 539 kts | 104° |
| 2026-05-06 14:18 | 34.44128 | 173.29120 | 35301 ft | 537 kts | 104° |
| 2026-05-06 14:18 | 34.42504 | 173.37900 | 35299 ft | 537 kts | 104° |
| 2026-05-06 14:19 | 34.40866 | 173.46732 | 35290 ft | 536 kts | 104° |
| 2026-05-06 14:19 | 34.39239 | 173.55463 | 35288 ft | 536 kts | 104° |
| 2026-05-06 14:20 | 34.37592 | 173.64267 | 35280 ft | 535 kts | 104° |
| 2026-05-06 14:20 | 34.35958 | 173.72957 | 35264 ft | 533 kts | 104° |
| 2026-05-06 14:21 | 34.34301 | 173.81743 | 35267 ft | 533 kts | 105° |
| 2026-05-06 14:21 | 34.32655 | 173.90424 | 35259 ft | 531 kts | 105° |
| 2026-05-06 14:22 | 34.30998 | 173.99141 | 35260 ft | 532 kts | 105° |
| 2026-05-06 14:22 | 34.29335 | 174.07838 | 35265 ft | 532 kts | 105° |
| 2026-05-06 14:23 | 34.27670 | 174.16521 | 35271 ft | 531 kts | 105° |
| 2026-05-06 14:23 | 34.25994 | 174.25217 | 35274 ft | 531 kts | 105° |
| 2026-05-06 14:24 | 34.24317 | 174.33890 | 35270 ft | 530 kts | 105° |
| 2026-05-06 14:24 | 34.22636 | 174.42541 | 35279 ft | 531 kts | 105° |
| 2026-05-06 14:25 | 34.20954 | 174.51170 | 35274 ft | 530 kts | 105° |
| 2026-05-06 14:25 | 34.19260 | 174.59821 | 35271 ft | 530 kts | 105° |
| 2026-05-06 14:26 | 34.17562 | 174.68465 | 35250 ft | 531 kts | 105° |
| 2026-05-06 14:26 | 34.15856 | 174.77110 | 35252 ft | 530 kts | 105° |
| 2026-05-06 14:27 | 34.14138 | 174.85783 | 35257 ft | 530 kts | 105° |
| 2026-05-06 14:27 | 34.12429 | 174.94376 | 35257 ft | 531 kts | 105° |
| 2026-05-06 14:28 | 34.10699 | 175.03041 | 35255 ft | 529 kts | 105° |
| 2026-05-06 14:28 | 34.08982 | 175.11606 | 35256 ft | 529 kts | 105° |
| 2026-05-06 14:29 | 34.07230 | 175.20311 | 35259 ft | 532 kts | 105° |
| 2026-05-06 14:29 | 34.05494 | 175.28908 | 35258 ft | 530 kts | 105° |
| 2026-05-06 14:30 | 34.03745 | 175.37538 | 35258 ft | 531 kts | 105° |
| 2026-05-06 14:30 | 34.01998 | 175.46121 | 35260 ft | 530 kts | 105° |
| 2026-05-06 14:31 | 34.00234 | 175.54750 | 35264 ft | 529 kts | 105° |
| 2026-05-06 14:31 | 33.98465 | 175.63374 | 35265 ft | 529 kts | 105° |
| 2026-05-06 14:32 | 33.96706 | 175.71916 | 35248 ft | 528 kts | 106° |
| 2026-05-06 14:32 | 33.94935 | 175.80484 | 35249 ft | 528 kts | 106° |
| 2026-05-06 14:33 | 33.93192 | 175.88886 | 35251 ft | 529 kts | 106° |
| 2026-05-06 14:33 | 33.91414 | 175.97427 | 35245 ft | 529 kts | 106° |
| 2026-05-06 14:34 | 33.89624 | 176.05991 | 35237 ft | 529 kts | 106° |
| 2026-05-06 14:34 | 33.87822 | 176.14583 | 35234 ft | 529 kts | 106° |
| 2026-05-06 14:35 | 33.86011 | 176.23181 | 35230 ft | 529 kts | 106° |
| 2026-05-06 14:35 | 33.84210 | 176.31705 | 35231 ft | 528 kts | 106° |
| 2026-05-06 14:36 | 33.82397 | 176.40250 | 35231 ft | 529 kts | 107° |
| 2026-05-06 14:36 | 33.80570 | 176.48828 | 35232 ft | 530 kts | 106° |
| 2026-05-06 14:37 | 33.78735 | 176.57416 | 35230 ft | 530 kts | 106° |
| 2026-05-06 14:37 | 33.76904 | 176.65958 | 35229 ft | 529 kts | 107° |
| 2026-05-06 14:38 | 33.75063 | 176.74512 | 35215 ft | 528 kts | 107° |
| 2026-05-06 14:38 | 33.73221 | 176.83031 | 35216 ft | 530 kts | 107° |
| 2026-05-06 14:39 | 33.71368 | 176.91580 | 35213 ft | 529 kts | 107° |
| 2026-05-06 14:39 | 33.69510 | 177.00119 | 35214 ft | 530 kts | 107° |
| 2026-05-06 14:40 | 33.67650 | 177.08638 | 35215 ft | 530 kts | 107° |
| 2026-05-06 14:40 | 33.65783 | 177.17157 | 35214 ft | 530 kts | 107° |
| 2026-05-06 14:41 | 33.63913 | 177.25659 | 35214 ft | 530 kts | 107° |
| 2026-05-06 14:41 | 33.62020 | 177.34230 | 35212 ft | 530 kts | 107° |
| 2026-05-06 14:42 | 33.60136 | 177.42738 | 35210 ft | 530 kts | 107° |
| 2026-05-06 14:42 | 33.58242 | 177.51259 | 35210 ft | 529 kts | 107° |
| 2026-05-06 14:43 | 33.56346 | 177.59758 | 35210 ft | 530 kts | 107° |
| 2026-05-06 14:43 | 33.54435 | 177.68298 | 35192 ft | 531 kts | 108° |
| 2026-05-06 14:44 | 33.52517 | 177.76831 | 35195 ft | 530 kts | 107° |
| 2026-05-06 14:45 | 33.49638 | 177.89594 | 35194 ft | 531 kts | 107° |
| 2026-05-06 14:45 | 33.47713 | 177.98090 | 35192 ft | 530 kts | 107° |
| 2026-05-06 14:46 | 33.45766 | 178.06648 | 35194 ft | 530 kts | 107° |
| 2026-05-06 14:46 | 33.43835 | 178.15114 | 35195 ft | 530 kts | 108° |
| 2026-05-06 14:47 | 33.41889 | 178.23613 | 35196 ft | 530 kts | 107° |
| 2026-05-06 14:47 | 33.39936 | 178.32114 | 35196 ft | 530 kts | 107° |
| 2026-05-06 14:48 | 33.37970 | 178.40640 | 35196 ft | 530 kts | 107° |
| 2026-05-06 14:48 | 33.36008 | 178.49121 | 35199 ft | 530 kts | 107° |
| 2026-05-06 14:49 | 33.34045 | 178.57581 | 35202 ft | 529 kts | 107° |
| 2026-05-06 14:49 | 33.32087 | 178.65991 | 35200 ft | 528 kts | 108° |
| 2026-05-06 14:50 | 33.30117 | 178.74419 | 35190 ft | 527 kts | 108° |
| 2026-05-06 14:50 | 33.28139 | 178.82855 | 35192 ft | 528 kts | 108° |
| 2026-05-06 14:51 | 33.26148 | 178.91321 | 35193 ft | 529 kts | 108° |
| 2026-05-06 14:51 | 33.24143 | 178.99815 | 35193 ft | 529 kts | 108° |
| 2026-05-06 14:52 | 33.22138 | 179.08284 | 35192 ft | 529 kts | 108° |
| 2026-05-06 14:52 | 33.20139 | 179.16701 | 35194 ft | 529 kts | 108° |
| 2026-05-06 14:53 | 33.18135 | 179.25107 | 35189 ft | 529 kts | 108° |
| 2026-05-06 14:53 | 33.16123 | 179.33516 | 35190 ft | 527 kts | 108° |
| 2026-05-06 14:54 | 33.14109 | 179.41913 | 35191 ft | 527 kts | 108° |
| 2026-05-06 14:54 | 33.12077 | 179.50356 | 35192 ft | 529 kts | 108° |
| 2026-05-06 14:55 | 33.10042 | 179.58783 | 35196 ft | 528 kts | 108° |
| 2026-05-06 14:55 | 33.08022 | 179.67119 | 35186 ft | 528 kts | 108° |
| 2026-05-06 14:56 | 33.05986 | 179.75491 | 35187 ft | 527 kts | 108° |
| 2026-05-06 14:56 | 33.03941 | 179.83879 | 35181 ft | 528 kts | 108° |
| 2026-05-06 14:57 | 33.01894 | 179.92250 | 35176 ft | 526 kts | 108° |
| 2026-05-06 14:57 | 32.99669 | -179.99475 | 35178 ft | 522 kts | 114° |